createdAt,value
2023-01-02T00:00:28.779Z,101074.72
2023-01-02T00:01:30.960Z,101091.19
2023-01-02T00:02:32.876Z,101089.50
2023-01-02T00:03:34.806Z,101087.81
2023-01-02T00:04:36.701Z,101078.75
2023-01-02T00:05:38.585Z,101093.41
2023-01-02T00:06:40.424Z,101075.63
2023-01-02T00:07:42.294Z,101065.22
2023-01-02T00:08:45.147Z,101084.81
2023-01-02T00:09:46.915Z,101081.81
2023-01-02T00:10:52.628Z,101093.22
2023-01-02T00:11:54.751Z,101096.75
2023-01-02T00:12:56.511Z,101084.47
2023-01-02T00:13:58.361Z,101085.59
2023-01-02T00:15:00.163Z,101094.44
2023-01-02T00:16:01.971Z,101091.06
2023-01-02T00:17:03.871Z,101092.03
2023-01-02T00:18:06.113Z,101072.72
2023-01-02T00:19:08.809Z,101087.84
2023-01-02T00:20:11.634Z,101096.81
2023-01-02T00:21:13.463Z,101096.13
2023-01-02T00:22:15.279Z,101090.78
2023-01-02T00:23:17.692Z,101091.88
2023-01-02T00:24:19.834Z,101085.66
2023-01-02T00:25:21.647Z,101082.28
2023-01-02T00:26:23.450Z,101071.28
2023-01-02T00:27:25.281Z,101078.06
2023-01-02T00:28:27.166Z,101082.53
2023-01-02T00:29:28.943Z,101081.13
2023-01-02T00:30:35.968Z,101087.16
2023-01-02T00:31:40.161Z,101080.84
2023-01-02T00:32:41.989Z,101081.97
2023-01-02T00:33:44.714Z,101078.59
2023-01-02T00:34:46.491Z,101085.75
2023-01-02T00:35:48.415Z,101083.22
2023-01-02T00:36:50.210Z,101075.75
2023-01-02T00:37:52.309Z,101089.09
2023-01-02T00:38:56.555Z,101098.78
2023-01-02T00:39:58.478Z,101109.47
2023-01-02T00:41:00.512Z,101108.59
2023-01-02T00:42:02.303Z,101111.41
2023-01-02T00:43:04.235Z,101113.22
2023-01-02T00:44:06.634Z,101113.34
2023-01-02T00:45:10.055Z,101116.16
2023-01-02T00:46:12.527Z,101112.78
2023-01-02T00:47:14.666Z,101123.56
2023-01-02T00:48:16.501Z,101117.50
2023-01-02T00:49:18.309Z,101128.91
2023-01-02T00:50:21.488Z,101132.53
2023-01-02T00:51:23.950Z,101119.34
2023-01-02T00:52:25.711Z,101123.81
2023-01-02T00:53:27.471Z,101128.44
2023-01-02T00:54:29.583Z,101128.44
2023-01-02T00:55:31.351Z,101129.56
2023-01-02T00:56:33.327Z,101126.91
2023-01-02T00:57:35.107Z,101125.31
2023-01-02T00:58:36.895Z,101122.66
2023-01-02T00:59:38.636Z,101107.25
2023-01-02T01:00:40.475Z,101110.03
2023-01-02T01:01:42.429Z,101123.75
2023-01-02T01:02:44.566Z,101125.56
2023-01-02T01:03:46.494Z,101124.13
2023-01-02T01:04:48.337Z,101131.16
2023-01-02T01:05:50.182Z,101129.47
2023-01-02T01:06:51.936Z,101132.22
2023-01-02T01:07:57.341Z,101123.38
2023-01-02T01:08:59.879Z,101122.66
2023-01-02T01:10:01.631Z,101122.66
2023-01-02T01:11:12.223Z,101106.81
2023-01-02T01:12:14.116Z,101133.34
2023-01-02T01:13:15.944Z,101129.97
2023-01-02T01:14:17.730Z,101128.25
2023-01-02T01:15:19.707Z,101150.44
2023-01-02T01:16:21.876Z,101134.56
2023-01-02T01:17:23.810Z,101144.53
2023-01-02T01:18:25.655Z,101136.63
2023-01-02T01:19:34.729Z,101120.31
2023-01-02T01:20:39.632Z,101137.50
2023-01-02T01:21:41.489Z,101131.28
2023-01-02T01:22:44.924Z,101115.19
2023-01-02T01:23:51.666Z,101136.06
2023-01-02T01:24:53.569Z,101138.59
2023-01-02T01:25:55.319Z,101138.84
2023-01-02T01:26:57.162Z,101131.81
2023-01-02T01:27:59.032Z,101141.75
2023-01-02T01:29:02.125Z,101137.41
2023-01-02T01:30:05.999Z,101132.91
2023-01-02T01:31:10.380Z,101135.56
2023-01-02T01:32:12.291Z,101143.56
2023-01-02T01:33:14.107Z,101107.28
2023-01-02T01:34:15.949Z,101140.31
2023-01-02T01:35:17.707Z,101138.63
2023-01-02T01:36:22.196Z,101133.41
2023-01-02T01:37:24.047Z,101134.25
2023-01-02T01:38:25.956Z,101136.06
2023-01-02T01:39:27.783Z,101139.72
2023-01-02T01:40:36.590Z,101146.03
2023-01-02T01:41:39.222Z,101141.53
2023-01-02T01:42:41.157Z,101139.00
2023-01-02T01:43:51.877Z,101141.81
2023-01-02T01:44:55.177Z,101146.28
2023-01-02T01:45:57.084Z,101137.94
2023-01-02T01:46:58.915Z,101149.09
2023-01-02T01:48:01.251Z,101144.84
2023-01-02T01:49:11.929Z,101144.72
2023-01-02T01:50:21.448Z,101131.28
2023-01-02T01:51:26.256Z,101146.53
2023-01-02T01:52:30.704Z,101148.34
2023-01-02T01:53:33.091Z,101142.16
2023-01-02T01:54:41.958Z,101148.63
2023-01-02T01:55:50.487Z,101150.41
2023-01-02T01:56:58.009Z,101158.41
2023-01-02T01:58:03.584Z,101138.66
2023-01-02T01:59:06.063Z,101153.22
2023-01-02T02:00:13.243Z,101156.09
2023-01-02T02:01:17.464Z,101148.97
2023-01-02T02:02:22.054Z,101151.75
2023-01-02T02:03:27.849Z,101157.09
2023-01-02T02:04:29.730Z,101153.59
2023-01-02T02:05:32.242Z,101152.88
2023-01-02T02:06:35.978Z,101146.66
2023-01-02T02:07:43.125Z,101148.59
2023-01-02T02:08:54.108Z,101149.34
2023-01-02T02:10:14.044Z,101151.75
2023-01-02T02:11:17.369Z,101145.59
2023-01-02T02:12:24.318Z,101139.63
2023-01-02T02:13:32.005Z,101150.31
2023-01-02T02:14:34.632Z,101142.44
2023-01-02T02:16:07.399Z,101147.78
2023-01-02T02:17:27.444Z,101141.34
2023-01-02T02:18:59.230Z,101143.63
2023-01-02T02:20:59.263Z,101149.69
2023-01-02T02:22:42.104Z,101145.44
2023-01-02T02:24:01.914Z,101150.41
2023-01-02T02:25:45.647Z,101153.34
2023-01-02T02:26:55.559Z,101151.75
2023-01-02T02:28:09.197Z,101156.59
2023-01-02T02:29:23.265Z,101157.84
2023-01-02T02:30:50.235Z,101148.38
2023-01-02T02:32:10.817Z,101157.09
2023-01-02T02:33:25.566Z,101163.56
2023-01-02T02:34:36.209Z,101154.69
2023-01-02T02:35:43.894Z,101163.81
2023-01-02T02:37:01.349Z,101145.13
2023-01-02T02:38:35.183Z,101156.78
2023-01-02T02:39:48.936Z,101160.16
2023-01-02T02:40:57.603Z,101161.34
2023-01-02T02:42:25.904Z,101168.38
2023-01-02T02:43:56.016Z,101167.28
2023-01-02T02:45:16.244Z,101135.69
2023-01-02T02:46:37.944Z,101163.91
2023-01-02T02:47:52.175Z,101162.31
2023-01-02T02:49:29.298Z,101163.91
2023-01-02T02:50:39.832Z,101162.47
2023-01-02T02:51:55.980Z,101164.25
2023-01-02T02:53:16.536Z,101159.31
2023-01-02T02:54:24.924Z,101160.28
2023-01-02T02:55:33.665Z,101153.88
2023-01-02T02:56:36.711Z,101162.34
2023-01-02T02:57:41.035Z,101162.59
2023-01-02T02:58:43.515Z,101162.00
2023-01-02T02:59:46.271Z,101171.78
2023-01-02T03:00:48.123Z,101164.16
2023-01-02T03:01:50.274Z,101178.19
2023-01-02T03:02:52.539Z,101160.53
2023-01-02T03:03:54.410Z,101180.13
2023-01-02T03:05:00.469Z,101168.75
2023-01-02T03:06:08.328Z,101174.81
2023-01-02T03:07:26.828Z,101171.31
2023-01-02T03:08:49.780Z,101179.69
2023-01-02T03:09:57.518Z,101176.28
2023-01-02T03:11:02.369Z,101173.75
2023-01-02T03:12:18.199Z,101173.00
2023-01-02T03:13:40.978Z,101168.41
2023-01-02T03:14:59.013Z,101171.78
2023-01-02T03:16:08.701Z,101164.78
2023-01-02T03:17:32.416Z,101164.78
2023-01-02T03:18:39.085Z,101172.03
2023-01-02T03:19:48.141Z,101171.31
2023-01-02T03:21:16.777Z,101157.03
2023-01-02T03:22:33.601Z,101172.03
2023-01-02T03:23:42.752Z,101167.69
2023-01-02T03:24:47.936Z,101165.25
2023-01-02T03:25:49.908Z,101161.97
2023-01-02T03:26:59.292Z,101147.69
2023-01-02T03:28:05.097Z,101158.72
2023-01-02T03:29:24.480Z,101160.41
2023-01-02T03:30:28.011Z,101167.44
2023-01-02T03:31:35.671Z,101169.63
2023-01-02T03:32:48.380Z,101156.41
2023-01-02T03:33:54.768Z,101157.28
2023-01-02T03:34:59.719Z,101156.41
2023-01-02T03:36:07.026Z,101161.88
2023-01-02T03:37:14.629Z,101150.69
2023-01-02T03:38:26.114Z,101164.66
2023-01-02T03:39:33.458Z,101162.84
2023-01-02T03:40:44.417Z,101162.84
2023-01-02T03:42:09.366Z,101158.97
2023-01-02T03:43:28.555Z,101168.66
2023-01-02T03:44:44.152Z,101162.47
2023-01-02T03:45:57.118Z,101167.06
2023-01-02T03:47:17.230Z,101167.06
2023-01-02T03:48:54.186Z,101177.84
2023-01-02T03:50:00.052Z,101175.91
2023-01-02T03:51:03.792Z,101171.16
2023-01-02T03:52:05.639Z,101175.63
2023-01-02T03:53:07.919Z,101184.81
2023-01-02T03:54:10.963Z,101178.03
2023-01-02T03:55:13.252Z,101187.97
2023-01-02T03:56:45.469Z,101184.22
2023-01-02T03:57:59.971Z,101175.50
2023-01-02T03:59:21.462Z,101194.50
2023-01-02T04:00:26.959Z,101191.00
2023-01-02T04:01:54.613Z,101194.50
2023-01-02T04:03:12.269Z,101193.66
2023-01-02T04:04:32.508Z,101197.06
2023-01-02T04:05:52.018Z,101192.81
2023-01-02T04:07:00.341Z,101154.03
2023-01-02T04:08:05.631Z,101191.50
2023-01-02T04:09:15.732Z,101192.56
2023-01-02T04:10:18.617Z,101200.69
2023-01-02T04:11:22.762Z,101192.78
2023-01-02T04:12:26.119Z,101196.44
2023-01-02T04:13:38.165Z,101192.06
2023-01-02T04:14:52.780Z,101192.78
2023-01-02T04:15:55.851Z,101182.47
2023-01-02T04:17:01.463Z,101196.53
2023-01-02T04:18:08.911Z,101186.00
2023-01-02T04:19:40.502Z,101186.41
2023-01-02T04:20:47.707Z,101171.97
2023-01-02T04:21:53.564Z,101185.78
2023-01-02T04:23:09.672Z,101188.69
2023-01-02T04:24:15.802Z,101176.81
2023-01-02T04:25:19.292Z,101186.97
2023-01-02T04:26:34.161Z,101182.72
2023-01-02T04:27:44.860Z,101185.38
2023-01-02T04:28:46.727Z,101193.28
2023-01-02T04:29:48.549Z,101196.91
2023-01-02T04:30:57.761Z,101194.47
2023-01-02T04:32:19.854Z,101197.63
2023-01-02T04:33:24.890Z,101202.22
2023-01-02T04:34:32.327Z,101198.84
2023-01-02T04:35:35.360Z,101198.84
2023-01-02T04:36:41.519Z,101204.41
2023-01-02T04:37:44.148Z,101204.41
2023-01-02T04:38:46.803Z,101184.88
2023-01-02T04:39:48.827Z,101200.13
2023-01-02T04:40:50.704Z,101197.63
2023-01-02T04:41:52.897Z,101204.63
2023-01-02T04:42:55.301Z,101198.59
2023-01-02T04:43:57.742Z,101198.59
2023-01-02T04:44:59.679Z,101198.69
2023-01-02T04:46:01.530Z,101197.84
2023-01-02T04:47:03.385Z,101200.50
2023-01-02T04:48:05.624Z,101197.84
2023-01-02T04:49:07.399Z,101192.63
2023-01-02T04:50:10.365Z,101185.75
2023-01-02T04:51:12.333Z,101190.81
2023-01-02T04:52:14.109Z,101189.13
2023-01-02T04:53:16.048Z,101193.72
2023-01-02T04:54:17.817Z,101198.91
2023-01-02T04:55:19.609Z,101193.59
2023-01-02T04:56:22.155Z,101188.41
2023-01-02T04:57:23.977Z,101187.44
2023-01-02T04:58:28.085Z,101195.53
2023-01-02T04:59:29.928Z,101191.06
2023-01-02T05:00:32.120Z,101190.19
2023-01-02T05:01:34.105Z,101176.00
2023-01-02T05:02:37.380Z,101184.25
2023-01-02T05:03:43.979Z,101176.72
2023-01-02T05:04:45.777Z,101187.88
2023-01-02T05:05:47.869Z,101192.97
2023-01-02T05:06:49.646Z,101198.28
2023-01-02T05:07:51.500Z,101190.44
2023-01-02T05:08:53.455Z,101190.44
2023-01-02T05:09:55.321Z,101195.75
2023-01-02T05:10:57.063Z,101194.91
2023-01-02T05:11:58.866Z,101195.03
2023-01-02T05:13:00.667Z,101155.03
2023-01-02T05:14:07.143Z,101184.38
2023-01-02T05:15:10.597Z,101182.56
2023-01-02T05:16:13.061Z,101181.72
2023-01-02T05:17:16.116Z,101182.56
2023-01-02T05:18:17.887Z,101172.38
2023-01-02T05:19:19.701Z,101184.47
2023-01-02T05:20:21.570Z,101188.84
2023-01-02T05:21:42.102Z,101184.47
2023-01-02T05:23:02.908Z,101187.88
2023-01-02T05:24:05.197Z,101186.66
2023-01-02T05:25:07.237Z,101191.28
2023-01-02T05:26:12.425Z,101186.19
2023-01-02T05:27:14.196Z,101187.16
2023-01-02T05:28:16.014Z,101181.81
2023-01-02T05:29:17.888Z,101183.66
2023-01-02T05:30:20.556Z,101180.25
2023-01-02T05:31:22.538Z,101181.97
2023-01-02T05:32:24.359Z,101172.28
2023-01-02T05:33:26.125Z,101142.81
2023-01-02T05:34:27.940Z,101167.03
2023-01-02T05:35:32.918Z,101168.88
2023-01-02T05:36:35.191Z,101177.69
2023-01-02T05:37:37.052Z,101168.97
2023-01-02T05:38:39.913Z,101153.47
2023-01-02T05:39:41.796Z,101166.31
2023-01-02T05:40:43.542Z,101162.81
2023-01-02T05:41:45.374Z,101159.31
2023-01-02T05:42:47.156Z,101159.44
2023-01-02T05:43:48.908Z,101160.28
2023-01-02T05:44:51.421Z,101152.75
2023-01-02T05:45:53.286Z,101166.56
2023-01-02T05:46:55.126Z,101152.13
2023-01-02T05:47:57.015Z,101166.69
2023-01-02T05:48:58.879Z,101164.13
2023-01-02T05:50:00.702Z,101166.78
2023-01-02T05:51:03.756Z,101164.13
2023-01-02T05:52:05.716Z,101169.44
2023-01-02T05:53:07.473Z,101160.50
2023-01-02T05:54:09.439Z,101170.41
2023-01-02T05:55:11.198Z,101167.75
2023-01-02T05:56:16.150Z,101166.06
2023-01-02T05:57:18.170Z,101160.72
2023-01-02T05:58:19.977Z,101164.38
2023-01-02T05:59:21.765Z,101175.00
2023-01-02T06:00:23.548Z,101176.81
2023-01-02T06:01:27.854Z,101170.66
2023-01-02T06:02:30.290Z,101177.66
2023-01-02T06:03:32.338Z,101171.63
2023-01-02T06:04:34.199Z,101170.75
2023-01-02T06:05:36.007Z,101176.94
2023-01-02T06:06:40.181Z,101173.53
2023-01-02T06:07:42.003Z,101172.56
2023-01-02T06:08:43.927Z,101168.22
2023-01-02T06:09:45.701Z,101169.91
2023-01-02T06:10:51.526Z,101172.56
2023-01-02T06:11:53.428Z,101163.50
2023-01-02T06:12:55.186Z,101162.91
2023-01-02T06:13:57.740Z,101166.06
2023-01-02T06:14:59.505Z,101171.28
2023-01-02T06:16:02.898Z,101163.16
2023-01-02T06:17:04.769Z,101171.88
2023-01-02T06:18:06.690Z,101170.81
2023-01-02T06:19:08.544Z,101166.22
2023-01-02T06:20:10.679Z,101153.38
2023-01-02T06:21:14.732Z,101169.47
2023-01-02T06:22:17.129Z,101168.28
2023-01-02T06:23:19.307Z,101163.69
2023-01-02T06:24:21.072Z,101164.44
2023-01-02T06:25:22.865Z,101168.66
2023-01-02T06:26:31.166Z,101147.22
2023-01-02T06:27:36.241Z,101161.31
2023-01-02T06:28:39.037Z,101169.78
2023-01-02T06:29:40.852Z,101159.00
2023-01-02T06:30:42.849Z,101157.06
2023-01-02T06:31:50.918Z,101144.84
2023-01-02T06:32:53.285Z,101161.06
2023-01-02T06:33:59.937Z,101160.09
2023-01-02T06:35:01.702Z,101158.91
2023-01-02T06:36:12.377Z,101157.94
2023-01-02T06:37:14.155Z,101155.91
2023-01-02T06:38:16.030Z,101161.09
2023-01-02T06:39:17.855Z,101154.78
2023-01-02T06:40:19.680Z,101124.28
2023-01-02T06:41:21.608Z,101159.16
2023-01-02T06:42:23.419Z,101167.88
2023-01-02T06:43:25.994Z,101165.19
2023-01-02T06:44:27.820Z,101169.47
2023-01-02T06:45:29.665Z,101165.09
2023-01-02T06:46:31.962Z,101165.72
2023-01-02T06:47:33.731Z,101163.06
2023-01-02T06:48:35.753Z,101156.38
2023-01-02T06:49:37.611Z,101169.88
2023-01-02T06:50:39.459Z,101168.16
2023-01-02T06:51:41.243Z,101172.53
2023-01-02T06:52:42.996Z,101168.03
2023-01-02T06:53:45.145Z,101172.41
2023-01-02T06:54:46.934Z,101163.44
2023-01-02T06:55:56.906Z,101162.59
2023-01-02T06:56:58.667Z,101170.34
2023-01-02T06:58:04.865Z,101172.03
2023-01-02T06:59:11.636Z,101173.75
2023-01-02T07:00:14.034Z,101165.75
2023-01-02T07:01:18.660Z,101167.94
2023-01-02T07:02:20.632Z,101168.41
2023-01-02T07:03:22.738Z,101160.91
2023-01-02T07:04:24.505Z,101165.75
2023-01-02T07:05:26.264Z,101171.06
2023-01-02T07:06:28.197Z,101144.50
2023-01-02T07:07:30.106Z,101164.06
2023-01-02T07:08:32.309Z,101169.38
2023-01-02T07:09:34.513Z,101158.25
2023-01-02T07:10:36.624Z,101171.19
2023-01-02T07:11:39.044Z,101162.34
2023-01-02T07:12:40.861Z,101162.22
2023-01-02T07:13:44.089Z,101165.03
2023-01-02T07:14:45.842Z,101160.66
2023-01-02T07:15:47.611Z,101165.84
2023-01-02T07:16:49.433Z,101165.84
2023-01-02T07:17:52.738Z,101170.22
2023-01-02T07:18:54.795Z,101170.34
2023-01-02T07:20:01.678Z,101171.19
2023-01-02T07:21:05.591Z,101168.16
2023-01-02T07:22:07.389Z,101178.22
2023-01-02T07:23:09.179Z,101186.19
2023-01-02T07:24:15.579Z,101179.31
2023-01-02T07:25:17.788Z,101181.00
2023-01-02T07:26:19.554Z,101190.81
2023-01-02T07:27:21.341Z,101189.84
2023-01-02T07:28:23.788Z,101191.78
2023-01-02T07:29:25.603Z,101186.81
2023-01-02T07:30:28.532Z,101184.63
2023-01-02T07:31:30.633Z,101190.94
2023-01-02T07:32:32.452Z,101186.44
2023-01-02T07:33:35.353Z,101180.28
2023-01-02T07:34:37.116Z,101186.59
2023-01-02T07:35:38.949Z,101193.59
2023-01-02T07:36:40.704Z,101206.06
2023-01-02T07:37:42.548Z,101198.22
2023-01-02T07:38:45.269Z,101192.88
2023-01-02T07:39:47.155Z,101200.00
2023-01-02T07:40:49.016Z,101192.88
2023-01-02T07:41:50.782Z,101197.34
2023-01-02T07:42:54.400Z,101183.75
2023-01-02T07:43:56.534Z,101199.19
2023-01-02T07:44:58.396Z,101191.38
2023-01-02T07:46:04.612Z,101187.78
2023-01-02T07:47:06.457Z,101176.59
2023-01-02T07:48:08.452Z,101184.16
2023-01-02T07:49:13.467Z,101185.13
2023-01-02T07:50:15.533Z,101180.94
2023-01-02T07:51:22.852Z,101185.97
2023-01-02T07:52:30.227Z,101178.69
2023-01-02T07:53:32.570Z,101182.47
2023-01-02T07:54:34.335Z,101179.81
2023-01-02T07:55:36.114Z,101178.06
2023-01-02T07:56:37.916Z,101159.28
2023-01-02T07:57:39.729Z,101161.09
2023-01-02T07:58:41.590Z,101180.72
2023-01-02T07:59:45.092Z,101175.41
2023-01-02T08:00:46.889Z,101172.88
2023-01-02T08:01:48.799Z,101182.47
2023-01-02T08:02:52.820Z,101180.72
2023-01-02T08:03:54.629Z,101174.06
2023-01-02T08:04:56.666Z,101157.19
2023-01-02T08:06:13.042Z,101185.13
2023-01-02T08:07:14.846Z,101182.22
2023-01-02T08:08:17.033Z,101184.16
2023-01-02T08:09:18.925Z,101177.97
2023-01-02T08:10:20.743Z,101186.06
2023-01-02T08:11:23.071Z,101184.38
2023-01-02T08:12:24.874Z,101173.44
2023-01-02T08:13:26.617Z,101189.69
2023-01-02T08:14:28.466Z,101175.25
2023-01-02T08:15:30.435Z,101168.81
2023-01-02T08:16:32.273Z,101196.84
2023-01-02T08:17:34.246Z,101180.22
2023-01-02T08:18:36.584Z,101178.75
2023-01-02T08:19:38.358Z,101192.34
2023-01-02T08:20:40.197Z,101192.47
2023-01-02T08:21:41.966Z,101194.19
2023-01-02T08:22:43.946Z,101184.22
2023-01-02T08:23:45.818Z,101189.78
2023-01-02T08:24:47.579Z,101179.50
2023-01-02T08:25:54.095Z,101180.47
2023-01-02T08:26:59.157Z,101192.34
2023-01-02T08:28:00.956Z,101190.66
2023-01-02T08:29:02.849Z,101197.78
2023-01-02T08:30:05.273Z,101165.91
2023-01-02T08:31:19.291Z,101158.66
2023-01-02T08:32:21.347Z,101188.88
2023-01-02T08:33:23.281Z,101190.66
2023-01-02T08:34:25.249Z,101165.69
2023-01-02T08:35:37.874Z,101194.19
2023-01-02T08:36:41.128Z,101197.69
2023-01-02T08:37:48.399Z,101180.47
2023-01-02T08:38:53.165Z,101192.34
2023-01-02T08:39:54.943Z,101192.47
2023-01-02T08:40:59.917Z,101192.69
2023-01-02T08:42:01.699Z,101190.38
2023-01-02T08:43:03.532Z,101204.09
2023-01-02T08:44:06.029Z,101198.84
2023-01-02T08:45:08.733Z,101194.63
2023-01-02T08:46:10.935Z,101201.41
2023-01-02T08:47:12.808Z,101192.69
2023-01-02T08:48:20.805Z,101198.84
2023-01-02T08:49:23.456Z,101194.41
2023-01-02T08:50:25.432Z,101196.19
2023-01-02T08:51:27.942Z,101194.50
2023-01-02T08:52:29.786Z,101197.16
2023-01-02T08:53:31.620Z,101205.16
2023-01-02T08:54:33.433Z,101203.34
2023-01-02T08:55:35.274Z,101204.19
2023-01-02T08:56:38.294Z,101190.53
2023-01-02T08:57:40.284Z,101205.16
2023-01-02T08:58:42.609Z,101197.16
2023-01-02T08:59:46.220Z,101198.84
2023-01-02T09:00:48.039Z,101178.28
2023-01-02T09:01:49.919Z,101171.16
2023-01-02T09:02:52.031Z,101190.75
2023-01-02T09:03:54.660Z,101167.63
2023-01-02T09:04:56.435Z,101183.59
2023-01-02T09:05:58.213Z,101175.03
2023-01-02T09:06:59.988Z,101180.94
2023-01-02T09:08:02.243Z,101178.41
2023-01-02T09:09:11.109Z,101178.28
2023-01-02T09:10:14.076Z,101174.56
2023-01-02T09:11:19.235Z,101177.34
2023-01-02T09:12:21.063Z,101181.69
2023-01-02T09:13:22.935Z,101171.38
2023-01-02T09:14:24.802Z,101168.38
2023-01-02T09:15:26.632Z,101172.88
2023-01-02T09:16:28.489Z,101176.47
2023-01-02T09:17:30.421Z,101152.59
2023-01-02T09:18:32.228Z,101175.63
2023-01-02T09:19:34.176Z,101169.56
2023-01-02T09:20:40.357Z,101180.22
2023-01-02T09:21:42.279Z,101186.06
2023-01-02T09:22:44.885Z,101182.56
2023-01-02T09:23:47.098Z,101179.03
2023-01-02T09:24:48.914Z,101180.72
2023-01-02T09:25:50.735Z,101186.06
2023-01-02T09:26:53.463Z,101178.22
2023-01-02T09:27:55.304Z,101171.03
2023-01-02T09:28:57.054Z,101173.72
2023-01-02T09:29:58.857Z,101175.53
2023-01-02T09:31:08.596Z,101172.00
2023-01-02T09:32:13.697Z,101174.69
2023-01-02T09:33:15.480Z,101162.06
2023-01-02T09:34:17.405Z,101182.47
2023-01-02T09:35:19.201Z,101172.22
2023-01-02T09:36:22.944Z,101170.28
2023-01-02T09:37:24.833Z,101179.91
2023-01-02T09:38:26.630Z,101179.91
2023-01-02T09:39:32.392Z,101179.03
2023-01-02T09:40:35.703Z,101174.47
2023-01-02T09:41:39.466Z,101168.38
2023-01-02T09:42:43.042Z,101169.25
2023-01-02T09:43:50.997Z,101171.03
2023-01-02T09:45:01.685Z,101161.47
2023-01-02T09:46:20.295Z,101168.38
2023-01-02T09:47:26.086Z,101180.53
2023-01-02T09:48:33.000Z,101169.34
2023-01-02T09:49:44.741Z,101176.16
2023-01-02T09:50:49.753Z,101167.31
2023-01-02T09:51:52.023Z,101164.97
2023-01-02T09:52:57.372Z,101177.13
2023-01-02T09:53:59.393Z,101177.97
2023-01-02T09:55:01.478Z,101173.81
2023-01-02T09:56:22.412Z,101178.22
2023-01-02T09:57:27.798Z,101180.53
2023-01-02T09:59:17.652Z,101164.31
2023-01-02T10:00:26.364Z,101176.41
2023-01-02T10:01:37.993Z,101167.69
2023-01-02T10:03:07.690Z,101173.84
2023-01-02T10:04:32.082Z,101182.72
2023-01-02T10:05:48.413Z,101181.72
2023-01-02T10:07:06.517Z,101187.78
2023-01-02T10:08:31.722Z,101173.00
2023-01-02T10:09:34.495Z,101186.59
2023-01-02T10:10:42.854Z,101184.16
2023-01-02T10:11:51.460Z,101186.69
2023-01-02T10:13:23.820Z,101189.00
2023-01-02T10:14:54.462Z,101194.72
2023-01-02T10:16:00.595Z,101181.72
2023-01-02T10:17:05.649Z,101193.97
2023-01-02T10:18:32.272Z,101192.63
2023-01-02T10:19:56.153Z,101186.47
2023-01-02T10:21:05.605Z,101185.34
2023-01-02T10:22:12.438Z,101194.31
2023-01-02T10:23:20.631Z,101194.31
2023-01-02T10:24:37.161Z,101195.19
2023-01-02T10:25:49.424Z,101178.72
2023-01-02T10:26:54.477Z,101192.88
2023-01-02T10:28:19.435Z,101194.69
2023-01-02T10:29:35.367Z,101191.66
2023-01-02T10:30:43.655Z,101185.47
2023-01-02T10:32:15.804Z,101181.50
2023-01-02T10:33:27.535Z,101181.50
2023-01-02T10:34:41.831Z,101176.16
2023-01-02T10:35:48.156Z,101188.63
2023-01-02T10:36:51.070Z,101182.47
2023-01-02T10:37:56.398Z,101183.53
2023-01-02T10:39:04.329Z,101182.69
2023-01-02T10:40:06.525Z,101180.00
2023-01-02T10:41:09.104Z,101177.34
2023-01-02T10:42:13.925Z,101181.72
2023-01-02T10:43:16.768Z,101173.72
2023-01-02T10:44:37.309Z,101175.19
2023-01-02T10:45:39.134Z,101179.66
2023-01-02T10:46:42.127Z,101170.22
2023-01-02T10:47:44.843Z,101185.84
2023-01-02T10:48:52.270Z,101184.16
2023-01-02T10:49:57.592Z,101182.22
2023-01-02T10:51:03.371Z,101184.88
2023-01-02T10:52:13.712Z,101183.06
2023-01-02T10:53:34.745Z,101180.03
2023-01-02T10:54:59.677Z,101170.81
2023-01-02T10:56:04.045Z,101165.97
2023-01-02T10:57:20.628Z,101173.72
2023-01-02T10:58:28.358Z,101177.22
2023-01-02T10:59:30.729Z,101165.25
2023-01-02T11:00:35.389Z,101176.50
2023-01-02T11:01:50.128Z,101165.72
2023-01-02T11:03:00.596Z,101160.38
2023-01-02T11:04:02.522Z,101157.59
2023-01-02T11:05:06.441Z,101165.84
2023-01-02T11:06:38.930Z,101160.38
2023-01-02T11:07:48.038Z,101165.47
2023-01-02T11:08:58.984Z,101166.31
2023-01-02T11:10:01.041Z,101157.59
2023-01-02T11:11:13.437Z,101155.88
2023-01-02T11:12:15.407Z,101164.75
2023-01-02T11:13:21.451Z,101158.69
2023-01-02T11:14:28.626Z,101162.34
2023-01-02T11:15:34.754Z,101162.34
2023-01-02T11:16:40.920Z,101168.63
2023-01-02T11:17:44.323Z,101158.69
2023-01-02T11:18:55.233Z,101155.31
2023-01-02T11:19:57.421Z,101160.38
2023-01-02T11:21:06.470Z,101156.13
2023-01-02T11:22:10.460Z,101150.69
2023-01-02T11:23:15.068Z,101143.91
2023-01-02T11:24:26.546Z,101146.44
2023-01-02T11:25:36.006Z,101155.31
2023-01-02T11:26:40.424Z,101150.69
2023-01-02T11:27:44.382Z,101149.84
2023-01-02T11:28:49.640Z,101143.78
2023-01-02T11:29:51.824Z,101143.78
2023-01-02T11:31:00.925Z,101135.44
2023-01-02T11:32:04.233Z,101143.78
2023-01-02T11:33:14.694Z,101141.25
2023-01-02T11:34:22.204Z,101129.38
2023-01-02T11:35:34.052Z,101140.28
2023-01-02T11:36:36.381Z,101139.31
2023-01-02T11:37:38.164Z,101129.63
2023-01-02T11:38:52.084Z,101130.59
2023-01-02T11:40:24.908Z,101130.34
2023-01-02T11:42:08.003Z,101130.91
2023-01-02T11:43:30.276Z,101129.84
2023-01-02T11:44:34.624Z,101124.63
2023-01-02T11:45:37.532Z,101120.91
2023-01-02T11:46:39.987Z,101111.47
2023-01-02T11:47:49.178Z,101122.84
2023-01-02T11:48:54.211Z,101093.28
2023-01-02T11:49:56.297Z,101115.66
2023-01-02T11:50:58.088Z,101116.78
2023-01-02T11:52:04.108Z,101116.03
2023-01-02T11:53:12.006Z,101117.72
2023-01-02T11:54:19.445Z,101121.25
2023-01-02T11:55:49.641Z,101120.19
2023-01-02T11:56:52.461Z,101123.41
2023-01-02T11:58:01.333Z,101121.88
2023-01-02T11:59:14.707Z,101116.53
2023-01-02T12:00:19.975Z,101113.88
2023-01-02T12:01:44.385Z,101113.63
2023-01-02T12:02:54.156Z,101109.25
2023-01-02T12:03:56.687Z,101107.56
2023-01-02T12:04:58.663Z,101107.81
2023-01-02T12:06:09.587Z,101109.63
2023-01-02T12:07:29.176Z,101107.81
2023-01-02T12:08:43.295Z,101098.69
2023-01-02T12:10:06.277Z,101099.44
2023-01-02T12:11:48.000Z,101100.75
2023-01-02T12:13:15.727Z,101103.44
2023-01-02T12:14:22.149Z,101099.06
2023-01-02T12:15:35.040Z,101099.16
2023-01-02T12:17:14.873Z,101097.22
2023-01-02T12:18:34.544Z,101100.63
2023-01-02T12:20:03.410Z,101088.19
2023-01-02T12:21:22.150Z,101100.75
2023-01-02T12:22:43.860Z,101094.69
2023-01-02T12:24:06.867Z,101098.34
2023-01-02T12:25:28.217Z,101094.69
2023-01-02T12:26:44.436Z,101101.97
2023-01-02T12:28:06.532Z,101098.34
2023-01-02T12:29:48.073Z,101086.56
2023-01-02T12:31:01.145Z,101081.38
2023-01-02T12:32:27.572Z,101081.13
2023-01-02T12:34:07.802Z,101082.09
2023-01-02T12:35:42.959Z,101081.13
2023-01-02T12:37:01.391Z,101080.16
2023-01-02T12:38:15.917Z,101080.41
2023-01-02T12:39:50.240Z,101067.63
2023-01-02T12:41:19.317Z,101075.78
2023-01-02T12:42:29.708Z,101072.41
2023-01-02T12:43:54.048Z,101069.00